createdAt,value
2023-02-08T09:11:33.666Z,21.58
2023-02-08T09:13:05.707Z,21.48
2023-02-08T09:14:37.750Z,21.20
2023-02-08T09:16:17.930Z,18.15
2023-02-08T09:17:50.002Z,21.08
2023-02-08T09:19:22.105Z,20.15
2023-02-08T09:20:54.092Z,16.67
2023-02-08T09:22:26.127Z,21.33
2023-02-08T09:23:58.350Z,21.38
2023-02-08T09:25:30.520Z,19.60
2023-02-08T09:27:02.601Z,20.08
2023-02-08T09:28:35.560Z,21.95
2023-02-08T09:30:09.187Z,17.95
2023-02-08T09:33:14.272Z,19.10
2023-02-08T09:34:46.293Z,19.23
2023-02-08T09:36:18.781Z,18.08
2023-02-08T09:37:55.741Z,17.38
2023-02-08T09:41:06.569Z,19.15
2023-02-08T09:42:44.255Z,21.92
2023-02-08T09:44:28.318Z,24.05
2023-02-08T09:47:58.638Z,20.67
2023-02-08T09:49:40.206Z,16.83
2023-02-08T09:51:18.287Z,18.60
2023-02-08T09:53:00.195Z,23.70
2023-02-08T09:54:47.498Z,19.52
2023-02-08T09:56:28.897Z,17.15
2023-02-08T09:58:06.179Z,16.20
2023-02-08T09:59:39.786Z,17.10
2023-02-08T10:02:55.254Z,16.48
2023-02-08T10:04:46.138Z,18.73
2023-02-08T10:06:19.720Z,19.45
2023-02-08T10:09:27.222Z,18.25
2023-02-08T10:10:59.188Z,16.13
2023-02-08T10:12:40.147Z,18.27
2023-02-08T10:14:25.475Z,19.58
2023-02-08T10:16:15.657Z,18.05
2023-02-08T10:18:15.770Z,17.15
2023-02-08T10:19:55.083Z,15.43
2023-02-08T10:21:42.668Z,16.48
2023-02-08T10:23:23.885Z,17.98
2023-02-08T10:25:21.205Z,14.60
2023-02-08T10:27:07.152Z,14.70
2023-02-08T10:28:57.572Z,15.88
2023-02-08T10:31:02.286Z,16.98
2023-02-08T10:32:37.609Z,16.80
2023-02-08T10:34:31.560Z,16.23
2023-02-08T10:36:08.969Z,13.45
2023-02-08T10:37:47.138Z,14.07
2023-02-08T10:39:27.561Z,16.58
2023-02-08T10:41:04.569Z,15.50
2023-02-08T10:42:44.944Z,16.73
2023-02-08T10:46:01.032Z,16.85
2023-02-08T10:47:41.904Z,13.48
2023-02-08T10:49:35.115Z,13.20
2023-02-08T10:51:24.770Z,15.27
2023-02-08T10:52:57.354Z,13.35
2023-02-08T10:54:39.936Z,14.52
2023-02-08T10:56:32.025Z,15.20
2023-02-08T10:58:05.869Z,13.90
2023-02-08T10:59:58.776Z,14.02
2023-02-08T11:01:31.466Z,14.48
2023-02-08T11:03:23.483Z,13.10
2023-02-08T11:05:12.839Z,13.93
2023-02-08T11:06:53.858Z,16.63
2023-02-08T11:08:36.373Z,14.80
2023-02-08T11:10:20.786Z,15.57
2023-02-08T11:11:56.646Z,15.63
2023-02-08T11:13:36.646Z,14.10
2023-02-08T11:15:38.509Z,14.20
2023-02-08T11:17:43.549Z,12.65
2023-02-08T11:19:43.076Z,13.25
2023-02-08T11:21:26.004Z,13.68
2023-02-08T11:22:59.355Z,14.73
2023-02-08T11:26:39.678Z,14.27
2023-02-08T11:28:28.347Z,14.68
2023-02-08T11:30:18.860Z,11.88
2023-02-08T11:32:03.471Z,13.70
2023-02-08T11:33:37.357Z,12.32
2023-02-08T11:35:28.192Z,12.45
2023-02-08T11:37:10.350Z,14.02
2023-02-08T11:38:52.666Z,15.75
2023-02-08T11:40:34.170Z,13.50
2023-02-08T11:42:11.078Z,13.93
2023-02-08T11:44:04.073Z,15.00
2023-02-08T11:45:39.544Z,14.73
2023-02-08T11:47:17.124Z,13.93
2023-02-08T11:48:53.376Z,13.20
2023-02-08T11:50:35.519Z,13.02
2023-02-08T11:52:20.934Z,13.40
2023-02-08T11:53:53.820Z,12.40
2023-02-08T11:55:29.171Z,14.15
2023-02-08T11:57:15.649Z,13.25
2023-02-08T11:59:09.991Z,13.48
2023-02-08T12:00:42.084Z,13.50
2023-02-08T12:02:37.473Z,14.27
2023-02-08T12:04:14.653Z,14.55
2023-02-08T12:05:56.501Z,14.77
2023-02-08T12:07:49.933Z,13.60
2023-02-08T12:09:24.475Z,13.95
2023-02-08T12:11:12.444Z,13.98
2023-02-08T12:13:02.786Z,13.57
2023-02-08T14:30:17.918Z,13.77
2023-02-08T14:31:50.757Z,14.02
2023-02-08T14:33:27.011Z,13.90
2023-02-08T14:35:18.564Z,14.00
2023-02-08T14:37:06.460Z,15.35
2023-02-08T14:38:47.788Z,14.80
2023-02-08T14:40:25.173Z,13.77
2023-02-08T14:42:05.787Z,13.45
2023-02-08T14:43:42.841Z,15.68
2023-02-08T14:45:31.943Z,13.10
2023-02-08T14:47:26.069Z,16.25
2023-02-08T14:48:58.392Z,15.02
2023-02-08T14:50:32.975Z,14.05
2023-02-08T14:52:12.623Z,14.95
2023-02-08T14:53:54.770Z,13.07
2023-02-08T14:55:32.521Z,15.15
2023-02-08T14:57:12.286Z,14.55
2023-02-08T14:58:55.584Z,14.82
2023-02-08T15:00:30.844Z,14.93
2023-02-08T15:02:10.179Z,12.40
2023-02-08T15:03:43.233Z,15.23
2023-02-08T15:05:26.217Z,14.25
2023-02-08T15:07:25.521Z,16.10
2023-02-08T15:08:57.952Z,13.13
2023-02-08T15:10:31.911Z,13.45
2023-02-08T15:12:18.236Z,14.13
2023-02-08T15:13:51.656Z,13.60
2023-02-08T15:15:23.710Z,15.80
2023-02-08T15:16:56.406Z,16.00
2023-02-08T15:18:30.960Z,15.52
2023-02-08T15:20:05.666Z,15.25
2023-02-08T15:21:39.166Z,15.07
2023-02-08T15:23:23.031Z,13.98
2023-02-08T15:24:56.099Z,14.07
2023-02-08T15:26:28.410Z,15.38
2023-02-08T15:28:17.769Z,15.73
2023-02-08T15:29:50.006Z,15.32
2023-02-08T15:31:32.309Z,15.02
2023-02-08T15:33:10.003Z,15.95
2023-02-08T15:34:44.368Z,14.40
2023-02-08T15:36:25.666Z,14.13
2023-02-08T15:37:57.919Z,16.17
2023-02-08T15:39:41.401Z,14.38
2023-02-08T15:41:16.341Z,16.02
2023-02-08T15:42:48.378Z,15.90
2023-02-08T15:44:30.409Z,15.23
2023-02-08T15:46:05.477Z,14.30
2023-02-08T15:47:40.179Z,16.13
2023-02-08T15:49:16.834Z,18.20
2023-02-08T15:50:48.836Z,15.82
2023-02-08T15:52:23.507Z,14.68
2023-02-08T15:53:56.694Z,15.60
2023-02-08T15:55:33.346Z,16.05
2023-02-08T15:57:09.932Z,19.05
2023-02-08T15:58:45.136Z,15.70
2023-02-08T16:00:18.958Z,16.55
2023-02-08T16:01:51.711Z,15.25
2023-02-08T16:05:12.673Z,15.10
2023-02-08T16:06:56.331Z,14.35
2023-02-08T16:08:34.264Z,18.52
2023-02-08T16:10:08.040Z,13.93
2023-02-08T16:11:40.274Z,15.02
2023-02-08T16:13:21.318Z,15.90
2023-02-08T16:14:56.923Z,17.13
2023-02-08T16:16:44.858Z,14.55
2023-02-08T16:18:38.628Z,14.77
2023-02-08T16:20:29.163Z,17.95
2023-02-08T16:22:14.301Z,15.45
2023-02-08T16:25:45.749Z,15.10
2023-02-08T16:27:25.559Z,15.20
2023-02-08T16:29:02.539Z,13.10
2023-02-08T16:30:34.730Z,15.63
2023-02-08T16:33:44.798Z,16.05
2023-02-08T16:35:25.519Z,16.58
2023-02-08T16:36:57.646Z,17.10
2023-02-08T16:38:37.017Z,13.38
2023-02-08T16:40:27.424Z,15.07
2023-02-08T16:42:15.433Z,18.55
2023-02-08T16:43:49.499Z,18.80
2023-02-08T16:45:22.828Z,13.75
2023-02-08T16:46:55.004Z,14.77
2023-02-08T16:48:31.853Z,15.90
2023-02-08T16:50:07.757Z,14.05
2023-02-08T16:51:43.575Z,13.73
2023-02-08T16:53:15.615Z,14.93
2023-02-08T16:54:47.785Z,14.05
2023-02-08T16:56:20.181Z,16.00
2023-02-08T16:57:54.824Z,14.48
2023-02-08T16:59:28.331Z,14.57
2023-02-08T17:02:32.816Z,15.80
2023-02-08T17:04:05.265Z,15.52
2023-02-08T17:05:39.175Z,13.90
2023-02-08T17:07:18.053Z,14.60
2023-02-08T17:08:50.114Z,14.82
2023-02-08T17:10:22.095Z,15.80
2023-02-08T17:11:54.291Z,15.30
2023-02-08T17:13:29.611Z,16.42
2023-02-08T17:15:01.622Z,15.85
2023-02-08T17:16:35.461Z,16.50
2023-02-08T17:18:07.474Z,15.13
2023-02-08T17:19:39.545Z,15.68
2023-02-08T17:21:11.566Z,17.02
2023-02-08T17:22:43.702Z,16.92
2023-02-08T17:24:18.068Z,17.67
2023-02-08T17:25:50.090Z,22.73
2023-02-08T17:27:22.513Z,18.70
2023-02-08T17:28:59.379Z,28.80
2023-02-08T17:30:31.445Z,18.33
2023-02-08T17:32:03.461Z,18.15
2023-02-08T17:33:37.442Z,27.15
2023-02-08T17:35:10.129Z,17.30
2023-02-08T17:36:42.833Z,19.63
2023-02-08T17:38:15.737Z,20.70
2023-02-08T17:39:47.733Z,30.65
2023-02-08T17:41:21.227Z,22.83
2023-02-08T17:42:54.311Z,20.65
2023-02-08T17:44:26.589Z,24.92
2023-02-08T17:45:58.642Z,21.20
2023-02-08T17:47:30.790Z,18.17
2023-02-08T17:49:04.092Z,20.73
2023-02-08T17:50:36.985Z,18.38
2023-02-08T17:53:44.120Z,19.70
2023-02-08T17:55:17.170Z,20.50
2023-02-08T17:56:49.487Z,22.13
2023-02-08T17:58:21.549Z,21.33
2023-02-08T17:59:53.625Z,20.00
2023-02-08T18:01:27.178Z,19.88
2023-02-08T18:04:33.373Z,15.40
2023-02-08T18:06:06.482Z,19.02
2023-02-08T18:07:40.101Z,15.80
2023-02-08T18:09:12.290Z,15.27
2023-02-08T18:10:44.587Z,36.45
2023-02-08T18:12:16.893Z,18.38
2023-02-08T18:13:50.620Z,14.60
2023-02-08T18:15:23.103Z,15.55
2023-02-08T18:16:57.908Z,14.90
2023-02-08T18:18:29.997Z,13.32
2023-02-08T18:20:02.138Z,13.00
2023-02-08T18:21:34.356Z,14.50
2023-02-08T18:23:06.514Z,14.77
2023-02-08T18:24:38.513Z,14.02
2023-02-08T18:26:20.383Z,14.75
2023-02-08T18:27:52.540Z,12.07
2023-02-08T18:29:25.316Z,14.68
2023-02-08T18:31:04.897Z,13.77
2023-02-08T18:32:37.231Z,12.43
2023-02-08T18:34:10.036Z,13.48
2023-02-08T18:35:48.572Z,15.35
2023-02-08T18:37:21.591Z,13.98
2023-02-08T18:38:55.982Z,14.65
2023-02-08T18:40:28.008Z,15.27
2023-02-08T18:42:00.126Z,14.93
2023-02-08T18:43:32.143Z,14.18
2023-02-08T18:45:05.658Z,12.57
2023-02-08T18:48:09.676Z,14.10
2023-02-08T18:49:41.770Z,14.48
2023-02-08T18:51:16.589Z,16.02
2023-02-08T18:52:48.554Z,15.57
2023-02-08T18:54:20.576Z,13.38
2023-02-08T18:55:57.044Z,13.63
2023-02-08T18:57:29.188Z,16.27
2023-02-08T18:59:01.398Z,16.63
2023-02-08T19:00:33.522Z,13.88
2023-02-08T19:02:07.448Z,15.38
2023-02-08T19:03:39.946Z,15.18
2023-02-08T19:05:12.220Z,16.35
2023-02-08T19:06:44.266Z,16.73
2023-02-08T19:08:20.943Z,16.77
2023-02-08T19:09:54.564Z,16.45
2023-02-08T19:12:59.839Z,14.55
2023-02-08T19:14:32.089Z,15.75
2023-02-08T19:16:06.601Z,16.10
2023-02-08T19:17:38.604Z,17.20
2023-02-08T19:19:10.909Z,15.57
2023-02-08T19:20:43.068Z,15.68
2023-02-08T19:22:15.141Z,15.50
2023-02-08T19:23:48.652Z,14.60
2023-02-08T19:27:04.323Z,14.88
2023-02-08T19:28:36.488Z,15.55
2023-02-08T19:30:09.222Z,12.95
2023-02-08T19:31:42.383Z,14.63
2023-02-08T19:33:14.874Z,15.80
2023-02-08T19:34:46.897Z,14.50
2023-02-08T19:36:24.294Z,17.70
2023-02-08T19:37:56.395Z,17.63
2023-02-08T19:39:28.666Z,18.33
2023-02-08T19:41:00.710Z,16.08
2023-02-08T19:42:32.774Z,16.13
2023-02-08T19:44:06.522Z,17.58
2023-02-08T19:45:44.957Z,17.48
2023-02-08T19:47:17.199Z,16.73
2023-02-08T19:48:53.417Z,16.17
2023-02-08T19:50:25.516Z,21.58
2023-02-08T19:51:57.692Z,18.00
2023-02-08T19:53:30.317Z,16.33
2023-02-08T19:56:36.306Z,18.35
2023-02-08T19:58:08.311Z,20.73
2023-02-08T19:59:40.490Z,16.73
2023-02-08T20:01:21.451Z,20.45
2023-02-08T20:02:53.557Z,16.70
2023-02-08T20:04:25.546Z,17.88
2023-02-08T20:05:58.261Z,22.42
2023-02-08T20:07:30.326Z,23.17
2023-02-08T20:09:02.551Z,20.23
2023-02-08T20:10:46.482Z,17.23
2023-02-08T20:13:53.495Z,24.85
2023-02-08T20:15:25.506Z,22.10
2023-02-08T20:16:57.952Z,23.85
2023-02-08T20:18:30.022Z,22.40
2023-02-08T20:20:02.113Z,20.30
2023-02-08T20:21:39.912Z,21.23
2023-02-08T20:23:22.516Z,20.73
2023-02-08T20:24:54.877Z,23.25
2023-02-08T20:26:28.795Z,21.25
2023-02-08T20:28:00.982Z,20.98
2023-02-08T20:29:33.039Z,20.25
2023-02-08T20:31:29.693Z,24.95
2023-02-08T20:33:01.726Z,19.27
2023-02-08T20:34:33.879Z,19.33
2023-02-08T20:36:14.521Z,22.08
2023-02-08T20:37:46.900Z,25.38
2023-02-08T20:39:19.712Z,23.42
2023-02-08T20:40:51.669Z,22.05
2023-02-08T20:42:23.698Z,21.13
2023-02-08T20:43:56.254Z,18.90
2023-02-08T20:45:28.267Z,19.05
2023-02-08T20:47:00.281Z,20.58
2023-02-08T20:48:32.358Z,22.60
2023-02-08T20:50:17.826Z,17.80
2023-02-08T20:51:52.832Z,17.15
2023-02-08T20:53:24.912Z,19.38
2023-02-08T20:54:57.119Z,19.15
2023-02-08T20:56:34.657Z,27.38
2023-02-08T20:58:07.590Z,27.60
2023-02-08T20:59:39.811Z,37.60
2023-02-08T21:01:14.630Z,48.55
2023-02-08T21:02:47.154Z,34.42
2023-02-08T21:04:23.710Z,28.83
2023-02-08T21:05:56.013Z,26.65
2023-02-08T21:07:28.049Z,21.45
2023-02-08T21:09:04.200Z,20.63
2023-02-08T21:10:37.518Z,24.52
2023-02-08T21:12:09.679Z,26.10
2023-02-08T21:13:41.768Z,22.50
2023-02-08T21:15:13.777Z,19.48
2023-02-08T21:16:51.361Z,16.20
2023-02-08T21:18:23.504Z,16.08
2023-02-08T21:19:55.509Z,16.73
2023-02-08T21:21:28.653Z,16.42
2023-02-08T21:23:00.722Z,20.08
2023-02-08T21:24:33.131Z,16.70
2023-02-08T21:26:07.496Z,16.48
2023-02-08T21:27:39.564Z,18.88
2023-02-08T21:29:11.718Z,19.83
2023-02-08T21:30:44.917Z,17.75
2023-02-08T21:32:17.577Z,15.38
2023-02-08T21:33:50.462Z,14.73
2023-02-08T21:35:22.449Z,16.50
2023-02-08T21:36:54.483Z,13.15
2023-02-08T21:38:26.580Z,14.27
2023-02-08T21:39:58.752Z,14.65
2023-02-08T21:41:33.372Z,13.70
2023-02-08T21:43:07.772Z,13.25
2023-02-08T21:44:39.969Z,15.40
2023-02-08T21:46:15.539Z,14.63
2023-02-08T21:47:47.665Z,16.77
2023-02-08T21:49:38.375Z,17.13
2023-02-08T21:51:29.230Z,14.57
2023-02-08T21:54:46.704Z,16.63
2023-02-08T21:56:19.264Z,17.63
2023-02-08T21:57:51.439Z,16.52
2023-02-08T21:59:23.428Z,16.10
2023-02-08T22:00:55.490Z,16.98
2023-02-08T22:02:29.424Z,16.40
2023-02-08T22:04:01.394Z,14.48
2023-02-08T22:05:33.426Z,15.18
2023-02-08T22:07:05.472Z,14.38
2023-02-08T22:08:37.745Z,15.82
2023-02-08T22:10:10.855Z,15.13
2023-02-08T22:11:43.197Z,15.02
2023-02-08T22:13:15.175Z,15.95
2023-02-08T22:14:48.039Z,13.73
2023-02-08T22:16:20.109Z,14.48
2023-02-08T22:17:57.133Z,15.52
2023-02-08T22:19:29.202Z,15.00
2023-02-08T22:21:04.424Z,16.67
2023-02-08T22:25:57.698Z,15.95
2023-02-08T22:27:29.934Z,15.35
2023-02-08T22:29:02.041Z,16.08
2023-02-08T22:30:34.330Z,14.15
2023-02-08T22:32:07.756Z,15.43
2023-02-08T22:33:39.872Z,16.48
2023-02-08T22:35:16.027Z,14.55
2023-02-08T22:36:48.102Z,15.02
2023-02-08T22:38:20.193Z,14.40
2023-02-08T22:39:52.181Z,13.02
2023-02-08T22:41:24.332Z,12.52
2023-02-08T22:42:56.328Z,15.52
2023-02-08T22:44:28.394Z,15.43
2023-02-08T22:46:01.101Z,14.07
2023-02-08T22:47:33.969Z,16.48
2023-02-08T22:49:06.176Z,14.07
2023-02-08T22:50:38.840Z,17.15
2023-02-08T22:52:11.246Z,14.05
2023-02-08T22:53:44.000Z,16.65
2023-02-08T22:55:15.996Z,17.05
2023-02-08T22:56:47.970Z,14.00
2023-02-08T22:58:20.424Z,13.95
2023-02-08T22:59:52.469Z,16.02
2023-02-08T23:01:24.764Z,15.95
2023-02-08T23:02:56.865Z,16.15
2023-02-08T23:04:29.145Z,15.80
2023-02-08T23:06:01.194Z,17.13
2023-02-08T23:07:33.424Z,22.75
2023-02-08T23:09:06.309Z,29.70
2023-02-08T23:10:38.717Z,30.90
2023-02-08T23:12:10.743Z,23.35
2023-02-08T23:13:42.921Z,21.95
2023-02-08T23:15:15.059Z,18.98
2023-02-08T23:16:47.072Z,17.30
2023-02-08T23:18:19.080Z,20.17
2023-02-08T23:19:52.950Z,17.77
2023-02-08T23:21:24.916Z,17.98
2023-02-08T23:22:56.963Z,17.33
2023-02-08T23:24:29.313Z,18.85
2023-02-08T23:26:07.968Z,17.50
2023-02-08T23:27:39.917Z,17.80
2023-02-08T23:29:11.868Z,21.08
2023-02-08T23:30:44.307Z,19.92
2023-02-08T23:32:16.583Z,21.30
2023-02-08T23:33:51.670Z,23.17
2023-02-08T23:35:23.689Z,26.27
2023-02-08T23:36:55.716Z,25.88
2023-02-08T23:38:27.855Z,22.05
2023-02-08T23:40:00.403Z,18.50
2023-02-08T23:41:33.022Z,20.80
2023-02-08T23:43:05.049Z,20.15
2023-02-08T23:44:37.160Z,19.92
2023-02-08T23:46:11.420Z,21.20
2023-02-08T23:47:43.457Z,20.02
2023-02-08T23:49:15.461Z,20.88
2023-02-08T23:50:57.357Z,23.60
2023-02-08T23:52:29.593Z,21.80
2023-02-08T23:54:01.665Z,21.52
2023-02-08T23:55:33.778Z,23.17
2023-02-08T23:57:06.054Z,19.00
2023-02-08T23:58:38.286Z,19.70
